This is the latest recevied weather packets stored in our database for station/object W7JFO-3. If no packets are shown the sender has not sent any weather packets the latest 10 day(s).
| Time | Temp. | Humidity | Pressure | Rain* | Wind** | Luminosity | Snow |
|---|---|---|---|---|---|---|---|
| 1777610814 | 13.33° C | 37% | 1016 hPa | 0 mm | - | 0 W/m² | - |
| 1777609914 | 13.89° C | 36% | 1016 hPa | 0 mm | - | 0 W/m² | - |
| 1777609014 | 13.89° C | 36% | 1016.1 hPa | 0 mm | - | 0 W/m² | - |
| 1777608115 | 13.33° C | 36% | 1016 hPa | 0 mm | - | 0 W/m² | - |
| 1777607215 | 14.44° C | 34% | 1015.9 hPa | 0 mm | - | 0 W/m² | - |
| 1777606315 | 14.44° C | 33% | 1015.8 hPa | 0 mm | - | 0 W/m² | - |
| 1777605414 | 15° C | 33% | 1015.7 hPa | 0 mm | - | 0 W/m² | - |
| 1777604514 | 15° C | 34% | 1015.8 hPa | 0 mm | - | 0 W/m² | - |
| 1777603614 | 15.56° C | 32% | 1015.6 hPa | 0 mm | - | 7 W/m² | - |
| 1777602714 | 16.11° C | 32% | 1015.7 hPa | 0 mm | - | 14 W/m² | - |
| 1777601814 | 16.67° C | 32% | 1015.8 hPa | 0 mm | - | 19 W/m² | - |
| 1777600914 | 16.11° C | 32% | 1015.6 hPa | 0 mm | - | 37 W/m² | - |
| 1777600015 | 16.11° C | 32% | 1015.8 hPa | 0 mm | - | 28 W/m² | - |
| 1777599115 | 16.67° C | 31% | 1015.9 hPa | 0 mm | - | 26 W/m² | - |
| 1777598215 | 16.67° C | 33% | 1015.9 hPa | 0 mm | - | 155 W/m² | - |
| 1777597315 | 16.67° C | 32% | 1016 hPa | 0 mm | - | 174 W/m² | - |
| 1777596415 | 16.67° C | 32% | 1016.1 hPa | 0 mm | - | 271 W/m² | - |
| 1777595515 | 17.22° C | 31% | 1016.2 hPa | 0 mm | - | 315 W/m² | - |
| 1777594615 | 16.67° C | 32% | 1016.4 hPa | 0 mm | - | 359 W/m² | - |
| 1777593715 | 16.67° C | 33% | 1016.5 hPa | 0 mm | - | 403 W/m² | - |
| 1777592815 | 16.67° C | 34% | 1016.5 hPa | 0 mm | - | 446 W/m² | - |
| 1777591915 | 16.67° C | 33% | 1016.8 hPa | 0 mm | - | 489 W/m² | - |
| 1777591015 | 16.67° C | 33% | 1017.2 hPa | 0 mm | - | 531 W/m² | - |
| 1777590115 | 16.11° C | 36% | 1017.4 hPa | 0 mm | - | 570 W/m² | - |
| 1777589215 | 16.11° C | 33% | 1017.5 hPa | 0 mm | - | 608 W/m² | - |
* Rain latest hour (hover to see other rain measurements)
** Current wind speed in m/s (hover to see current wind gust speed)